Terminal Aerodrome Forecast
Issued by NWS Missoula, MT

Home | Current Version | Previous Version | Text Only | Print | Product List | Glossary On
Versions: 1 2 3 4 5 6 7 8 9 10 11 12 13 14 15 16 17 18 19
000
FTUS45 KMSO 272324
TAFGPI
TAF
KGPI 272324Z 2800/2824 18010KT 6SM -SHRA BR BKN025 OVC030
     FM280100 17006KT P6SM VCSH BKN040 OVC050
     FM280600 03007KT P6SM -SHSNRA SCT010 OVC025
     FM281400 VRB05KT P6SM -SHRA OVC035
     FM281800 16006KT P6SM VCSH BKN050=

USA.gov is the U.S. government's official web portal to all federal, state and local government web resources and services.